Time;durP1;ratioP1;P1;durP2;ratioP2;P2;SDS_P1;SDS_P2;PMS_P1;PMS_P2;Temp;Humidity;BMP_temperature;BMP_pressure;BME280_temperature;BME280_humidity;BME280_pressure;Samples;Min_cycle;Max_cycle;Signal;HPM_P1;HPM_P2
2023/03/09 00:00:27;;;;;;;13.18;7.25;;;;;;;;;;5054758;28;20441;-76
2023/03/09 00:02:53;;;;;;;12.98;6.68;;;;;;;;;;5054928;28;20402;-76
2023/03/09 00:05:20;;;;;;;13.48;7.53;;;;;;;;;;5053460;28;20090;-76
2023/03/09 00:07:47;;;;;;;13.15;7.07;;;;;;;;;;5054974;28;20041;-76
2023/03/09 00:10:14;;;;;;;15.80;7.07;;;;;;;;;;5054821;28;20053;-76
2023/03/09 00:12:40;;;;;;;14.68;7.88;;;;;;;;;;5053385;28;20037;-76
2023/03/09 00:15:07;;;;;;;15.30;7.70;;;;;;;;;;5053576;28;20067;-76
2023/03/09 00:17:33;;;;;;;14.85;7.07;;;;;;;;;;5053102;28;20041;-76
2023/03/09 00:20:14;;;;;;;13.52;7.03;;;;;;;;;;5053636;28;20511;-76
2023/03/09 00:22:40;;;;;;;15.43;7.38;;;;;;;;;;5041192;28;20037;-76
2023/03/09 00:25:07;;;;;;;15.13;6.82;;;;;;;;;;5054548;28;20076;-76
2023/03/09 00:27:33;;;;;;;13.77;7.90;;;;;;;;;;5054222;28;20048;-76
2023/03/09 00:29:59;;;;;;;13.57;6.55;;;;;;;;;;5053496;28;20396;-75
2023/03/09 00:32:25;;;;;;;15.95;7.22;;;;;;;;;;5052426;28;20049;-75
2023/03/09 00:34:52;;;;;;;13.63;6.25;;;;;;;;;;5053186;28;20044;-76
2023/03/09 00:37:18;;;;;;;15.10;7.10;;;;;;;;;;5054437;28;20483;-76
2023/03/09 00:39:44;;;;;;;14.90;7.90;;;;;;;;;;5053135;28;20116;-75
2023/03/09 00:42:10;;;;;;;15.50;7.40;;;;;;;;;;5054287;28;20049;-76
2023/03/09 00:44:36;;;;;;;12.80;7.15;;;;;;;;;;5052812;28;20119;-76
2023/03/09 00:47:02;;;;;;;16.15;7.20;;;;;;;;;;5069450;28;20095;-76
2023/03/09 00:49:28;;;;;;;14.63;7.60;;;;;;;;;;5053717;28;20437;-76
2023/03/09 00:51:54;;;;;;;14.55;7.25;;;;;;;;;;5036171;28;20044;-76
2023/03/09 00:54:20;;;;;;;13.85;7.60;;;;;;;;;;5052213;28;20086;-76
2023/03/09 00:56:46;;;;;;;14.25;7.50;;;;;;;;;;5052652;28;20085;-76
2023/03/09 00:59:12;;;;;;;14.43;6.95;;;;;;;;;;5052781;28;20044;-76
2023/03/09 01:01:38;;;;;;;16.58;7.55;;;;;;;;;;5045352;28;20040;-76
2023/03/09 01:04:04;;;;;;;14.10;7.38;;;;;;;;;;5052508;28;20044;-76
2023/03/09 01:06:31;;;;;;;15.90;7.50;;;;;;;;;;5035718;28;20037;-76
2023/03/09 01:08:57;;;;;;;13.85;6.97;;;;;;;;;;5053948;28;20035;-76
2023/03/09 01:11:24;;;;;;;15.38;7.72;;;;;;;;;;5053383;28;20045;-76
2023/03/09 01:13:52;;;;;;;17.05;8.10;;;;;;;;;;5052218;28;20113;-76
2023/03/09 01:16:18;;;;;;;15.63;7.30;;;;;;;;;;5052416;28;20044;-76
2023/03/09 01:18:44;;;;;;;17.73;7.18;;;;;;;;;;5052050;28;20120;-77
2023/03/09 01:21:10;;;;;;;14.73;7.63;;;;;;;;;;5051814;28;20037;-77
2023/03/09 01:23:38;;;;;;;13.73;7.50;;;;;;;;;;5056698;28;20044;-76
2023/03/09 01:26:04;;;;;;;14.75;7.25;;;;;;;;;;5052004;28;20053;-76
2023/03/09 01:28:31;;;;;;;15.57;8.18;;;;;;;;;;5051729;28;20045;-76
2023/03/09 01:30:57;;;;;;;15.68;7.78;;;;;;;;;;5052972;28;20045;-76
2023/03/09 01:33:23;;;;;;;18.25;8.60;;;;;;;;;;5051822;28;20396;-76
2023/03/09 01:35:49;;;;;;;15.63;7.60;;;;;;;;;;5035203;28;20049;-76
2023/03/09 01:38:15;;;;;;;16.92;7.82;;;;;;;;;;5053056;28;20446;-76
2023/03/09 01:40:44;;;;;;;16.83;8.27;;;;;;;;;;5061859;28;20102;-76
2023/03/09 01:43:31;;;;;;;18.45;8.27;;;;;;;;;;5072904;28;20509;-76
2023/03/09 01:46:16;;;;;;;16.73;7.75;;;;;;;;;;5066825;28;20498;-76
2023/03/09 01:48:42;;;;;;;19.00;8.80;;;;;;;;;;5038951;28;20044;-76
2023/03/09 01:51:08;;;;;;;17.55;8.70;;;;;;;;;;5052028;28;20099;-76
2023/03/09 01:53:34;;;;;;;16.45;8.32;;;;;;;;;;5052157;28;20056;-76
2023/03/09 01:56:02;;;;;;;17.70;8.23;;;;;;;;;;5060803;28;20540;-75
2023/03/09 01:58:29;;;;;;;19.30;8.52;;;;;;;;;;5072424;28;20119;-75
2023/03/09 02:00:56;;;;;;;18.45;8.77;;;;;;;;;;5071241;28;20491;-76
2023/03/09 02:03:33;;;;;;;18.80;9.18;;;;;;;;;;5071443;28;20044;-76
2023/03/09 02:06:01;;;;;;;17.65;8.65;;;;;;;;;;5041607;28;20044;-76
2023/03/09 02:08:28;;;;;;;17.95;8.43;;;;;;;;;;5071337;28;20174;-76
2023/03/09 02:10:54;;;;;;;18.42;9.52;;;;;;;;;;5058332;28;20040;-76
2023/03/09 02:13:22;;;;;;;22.63;9.40;;;;;;;;;;5070264;28;20411;-75
2023/03/09 02:15:49;;;;;;;19.33;9.60;;;;;;;;;;5052381;28;20037;-75
2023/03/09 02:18:15;;;;;;;21.38;9.45;;;;;;;;;;5052664;28;20120;-76
2023/03/09 02:20:44;;;;;;;18.80;9.02;;;;;;;;;;5050830;28;20048;-76
2023/03/09 02:23:15;;;;;;;21.50;8.85;;;;;;;;;;5051120;28;20041;-76
2023/03/09 02:25:48;;;;;;;20.98;9.63;;;;;;;;;;5051255;28;20399;-76
2023/03/09 02:28:14;;;;;;;21.58;9.40;;;;;;;;;;5051274;28;20487;-76
2023/03/09 02:30:41;;;;;;;18.42;9.23;;;;;;;;;;5047008;28;20102;-76
2023/03/09 02:33:09;;;;;;;20.55;9.93;;;;;;;;;;5070667;28;20057;-76
2023/03/09 02:35:35;;;;;;;21.85;9.48;;;;;;;;;;5059227;28;20132;-76
2023/03/09 02:38:01;;;;;;;20.67;9.55;;;;;;;;;;5085285;28;20044;-76
2023/03/09 02:40:32;;;;;;;20.70;9.88;;;;;;;;;;5054795;28;20072;-76
2023/03/09 02:42:59;;;;;;;19.80;10.05;;;;;;;;;;5072129;28;20036;-76
2023/03/09 02:45:26;;;;;;;17.85;9.15;;;;;;;;;;5063755;28;20040;-76
2023/03/09 02:47:53;;;;;;;20.80;10.13;;;;;;;;;;5051301;28;20463;-76
2023/03/09 02:50:19;;;;;;;19.30;10.00;;;;;;;;;;5030972;28;20133;-76
2023/03/09 02:52:45;;;;;;;21.65;9.98;;;;;;;;;;5063501;28;20048;-76
2023/03/09 02:55:11;;;;;;;22.23;10.98;;;;;;;;;;5040179;28;20046;-76
2023/03/09 02:57:37;;;;;;;20.55;9.77;;;;;;;;;;5051009;28;20120;-76
2023/03/09 03:00:08;;;;;;;19.90;9.65;;;;;;;;;;5051762;28;20049;-76
2023/03/09 03:02:34;;;;;;;18.95;9.40;;;;;;;;;;5061329;28;20495;-76
2023/03/09 03:05:00;;;;;;;19.65;9.48;;;;;;;;;;5056905;28;20094;-76
2023/03/09 03:07:26;;;;;;;21.55;10.23;;;;;;;;;;5055549;28;20446;-76
2023/03/09 03:09:52;;;;;;;22.50;10.43;;;;;;;;;;5059957;28;20142;-76
2023/03/09 03:12:18;;;;;;;20.63;9.77;;;;;;;;;;5058527;28;20056;-76
2023/03/09 03:14:45;;;;;;;21.20;9.35;;;;;;;;;;5061555;28;20041;-76
2023/03/09 03:17:11;;;;;;;19.48;9.73;;;;;;;;;;5055879;28;20072;-76
2023/03/09 03:19:37;;;;;;;19.38;9.57;;;;;;;;;;5054115;28;20053;-76
2023/03/09 03:22:04;;;;;;;21.90;11.15;;;;;;;;;;5054455;28;20037;-76
2023/03/09 03:24:30;;;;;;;19.15;9.40;;;;;;;;;;5054277;28;20041;-76
2023/03/09 03:26:56;;;;;;;21.00;9.65;;;;;;;;;;5054176;28;20098;-76
2023/03/09 03:29:22;;;;;;;18.60;9.13;;;;;;;;;;5057927;28;20533;-76
2023/03/09 03:31:48;;;;;;;18.10;9.05;;;;;;;;;;5074006;28;20041;-76
2023/03/09 03:34:14;;;;;;;20.02;9.68;;;;;;;;;;5059642;28;20053;-77
2023/03/09 03:36:40;;;;;;;20.73;9.75;;;;;;;;;;5061385;28;20120;-76
2023/03/09 03:39:06;;;;;;;20.08;9.00;;;;;;;;;;5062084;28;20517;-76
2023/03/09 03:41:34;;;;;;;20.08;9.60;;;;;;;;;;5073148;28;20050;-76
2023/03/09 03:44:00;;;;;;;18.25;9.45;;;;;;;;;;5057610;28;20505;-76
2023/03/09 03:46:27;;;;;;;18.50;9.13;;;;;;;;;;5057602;28;20449;-76
2023/03/09 03:48:53;;;;;;;16.27;8.52;;;;;;;;;;5075051;28;20032;-76
2023/03/09 03:51:19;;;;;;;27.30;9.55;;;;;;;;;;5074159;28;20127;-76
2023/03/09 03:53:45;;;;;;;21.10;10.93;;;;;;;;;;5057210;28;20479;-76
2023/03/09 03:56:11;;;;;;;20.52;10.48;;;;;;;;;;5073816;28;20048;-76
2023/03/09 03:58:37;;;;;;;21.75;10.93;;;;;;;;;;5075005;28;20041;-76
2023/03/09 04:01:04;;;;;;;22.17;10.88;;;;;;;;;;5065925;28;20049;-76
2023/03/09 04:03:30;;;;;;;21.33;11.27;;;;;;;;;;5071421;28;20036;-76
2023/03/09 04:05:56;;;;;;;22.85;10.73;;;;;;;;;;5074716;28;20070;-76
2023/03/09 04:08:22;;;;;;;22.80;11.25;;;;;;;;;;5074816;28;20029;-77
2023/03/09 04:10:48;;;;;;;20.20;10.90;;;;;;;;;;5073385;28;20043;-76
2023/03/09 04:13:15;;;;;;;19.90;10.55;;;;;;;;;;5073814;28;20051;-76
2023/03/09 04:15:41;;;;;;;22.70;10.85;;;;;;;;;;5054265;28;20036;-76
2023/03/09 04:18:07;;;;;;;21.00;10.55;;;;;;;;;;5053710;28;20483;-76
2023/03/09 04:20:34;;;;;;;20.13;10.20;;;;;;;;;;5053349;28;20068;-76
2023/03/09 04:23:00;;;;;;;21.05;10.27;;;;;;;;;;5054357;28;20090;-76
2023/03/09 04:25:26;;;;;;;20.83;9.88;;;;;;;;;;5036937;28;20507;-76
2023/03/09 04:27:54;;;;;;;17.35;9.48;;;;;;;;;;5053080;28;20098;-75
2023/03/09 04:30:21;;;;;;;22.17;9.88;;;;;;;;;;5097200;28;20047;-76
2023/03/09 04:32:50;;;;;;;18.42;9.65;;;;;;;;;;5040138;28;20053;-77
2023/03/09 04:35:16;;;;;;;20.15;9.63;;;;;;;;;;5053004;28;20045;-76
2023/03/09 04:37:46;;;;;;;18.42;9.23;;;;;;;;;;5053024;28;20043;-76
2023/03/09 04:40:13;;;;;;;21.13;9.32;;;;;;;;;;5053044;28;20072;-76
2023/03/09 04:42:39;;;;;;;19.08;9.35;;;;;;;;;;5053040;28;20087;-76
2023/03/09 04:45:06;;;;;;;18.58;9.30;;;;;;;;;;5052690;28;20076;-76
2023/03/09 04:47:32;;;;;;;21.15;9.65;;;;;;;;;;5054231;28;20033;-76
2023/03/09 04:49:58;;;;;;;19.48;9.07;;;;;;;;;;5052790;28;20492;-77
2023/03/09 04:52:24;;;;;;;19.60;9.50;;;;;;;;;;5053154;28;20044;-76
2023/03/09 04:54:51;;;;;;;18.52;9.38;;;;;;;;;;5052769;28;20487;-76
2023/03/09 04:57:18;;;;;;;21.38;9.82;;;;;;;;;;5053825;28;20040;-76
2023/03/09 04:59:44;;;;;;;19.30;10.05;;;;;;;;;;5053953;28;20101;-76
2023/03/09 05:02:10;;;;;;;20.15;9.57;;;;;;;;;;5048613;28;20041;-76
2023/03/09 05:04:36;;;;;;;19.27;9.65;;;;;;;;;;5052709;28;20052;-76
2023/03/09 05:07:03;;;;;;;23.15;10.68;;;;;;;;;;5067721;28;20160;-75
2023/03/09 05:09:29;;;;;;;20.08;9.77;;;;;;;;;;5052220;28;20110;-76
2023/03/09 05:11:55;;;;;;;21.55;10.40;;;;;;;;;;5052060;28;20094;-76
2023/03/09 05:14:21;;;;;;;19.88;10.35;;;;;;;;;;5053618;28;20037;-76
2023/03/09 05:16:51;;;;;;;23.63;10.93;;;;;;;;;;5036049;28;20446;-76
2023/03/09 05:19:18;;;;;;;22.17;10.38;;;;;;;;;;5036108;28;20041;-76
2023/03/09 05:21:44;;;;;;;21.98;10.70;;;;;;;;;;5053738;28;20044;-75
2023/03/09 05:24:10;;;;;;;22.48;10.10;;;;;;;;;;5045191;28;20073;-76
2023/03/09 05:26:36;;;;;;;21.48;10.88;;;;;;;;;;5046042;28;20037;-75
2023/03/09 05:29:02;;;;;;;24.15;11.18;;;;;;;;;;5034968;28;20503;-76
2023/03/09 05:31:28;;;;;;;21.02;10.25;;;;;;;;;;5071716;28;20040;-76
2023/03/09 05:33:54;;;;;;;22.42;10.23;;;;;;;;;;5071912;28;20052;-76
2023/03/09 05:36:22;;;;;;;23.38;11.05;;;;;;;;;;5072059;28;20063;-76
2023/03/09 05:38:48;;;;;;;28.10;11.25;;;;;;;;;;5071890;28;20036;-76
2023/03/09 05:41:15;;;;;;;26.52;11.63;;;;;;;;;;5069430;28;20498;-76
2023/03/09 05:43:44;;;;;;;21.20;10.45;;;;;;;;;;5035343;28;20120;-75
2023/03/09 05:46:10;;;;;;;25.85;11.43;;;;;;;;;;5065923;28;20037;-76
2023/03/09 05:48:37;;;;;;;26.33;11.68;;;;;;;;;;5071843;28;20097;-76
2023/03/09 05:51:04;;;;;;;24.85;11.85;;;;;;;;;;5071764;28;20425;-76
2023/03/09 05:53:31;;;;;;;24.02;10.75;;;;;;;;;;5071732;28;20130;-76
2023/03/09 05:55:57;;;;;;;24.13;10.95;;;;;;;;;;5071305;28;20044;-76
2023/03/09 05:58:23;;;;;;;24.05;11.68;;;;;;;;;;5040969;28;20089;-76
2023/03/09 06:00:52;;;;;;;23.38;10.63;;;;;;;;;;5062266;28;20084;-76
2023/03/09 06:03:18;;;;;;;24.27;11.52;;;;;;;;;;5065566;28;20086;-76
2023/03/09 06:05:44;;;;;;;26.10;12.27;;;;;;;;;;5052906;28;20041;-76
2023/03/09 06:08:10;;;;;;;27.15;12.02;;;;;;;;;;5066064;28;20457;-76
2023/03/09 06:10:37;;;;;;;24.30;10.52;;;;;;;;;;5052778;28;20116;-76
2023/03/09 06:13:03;;;;;;;23.85;11.57;;;;;;;;;;5051161;28;20045;-76
2023/03/09 06:15:29;;;;;;;26.15;11.95;;;;;;;;;;5051352;28;20098;-76
2023/03/09 06:17:55;;;;;;;25.90;11.75;;;;;;;;;;5051282;28;20048;-76
2023/03/09 06:20:21;;;;;;;24.40;12.02;;;;;;;;;;5050906;28;20091;-76
2023/03/09 06:22:47;;;;;;;26.98;12.63;;;;;;;;;;5052275;28;20040;-76
2023/03/09 06:25:14;;;;;;;24.83;11.80;;;;;;;;;;5052325;28;20095;-76
2023/03/09 06:27:41;;;;;;;26.65;12.27;;;;;;;;;;5053348;28;20032;-76
2023/03/09 06:30:09;;;;;;;24.52;11.80;;;;;;;;;;5064763;28;20041;-76
2023/03/09 06:32:35;;;;;;;27.92;12.80;;;;;;;;;;5034516;28;20061;-76
2023/03/09 06:35:02;;;;;;;25.63;12.80;;;;;;;;;;5051065;28;20048;-76
2023/03/09 06:37:28;;;;;;;25.95;12.55;;;;;;;;;;5051064;28;20098;-76
2023/03/09 06:39:54;;;;;;;26.70;12.95;;;;;;;;;;5052242;28;20494;-75
2023/03/09 06:42:20;;;;;;;28.33;12.45;;;;;;;;;;5052007;28;20519;-76
2023/03/09 06:44:46;;;;;;;27.27;12.05;;;;;;;;;;5050652;28;20091;-76
2023/03/09 06:47:13;;;;;;;25.58;11.75;;;;;;;;;;5058587;28;20056;-76
2023/03/09 06:49:39;;;;;;;23.60;9.52;;;;;;;;;;5047173;28;20044;-75
2023/03/09 06:52:05;;;;;;;27.70;13.05;;;;;;;;;;5050518;28;20120;-76
2023/03/09 06:54:31;;;;;;;25.75;11.40;;;;;;;;;;5050732;28;20044;-76
2023/03/09 06:56:57;;;;;;;26.42;11.65;;;;;;;;;;5051768;28;20041;-76
2023/03/09 06:59:23;;;;;;;26.13;11.73;;;;;;;;;;5051054;28;20495;-76
2023/03/09 07:01:50;;;;;;;23.80;11.00;;;;;;;;;;5050878;28;20513;-76
2023/03/09 07:04:17;;;;;;;24.23;11.43;;;;;;;;;;5051926;28;20037;-76
2023/03/09 07:06:43;;;;;;;22.20;11.18;;;;;;;;;;5051995;28;20040;-76
2023/03/09 07:09:09;;;;;;;22.67;10.80;;;;;;;;;;5050702;28;20060;-76
2023/03/09 07:11:35;;;;;;;25.27;11.20;;;;;;;;;;5034050;28;20266;-76
2023/03/09 07:14:01;;;;;;;24.98;11.57;;;;;;;;;;5034090;28;20051;-76
2023/03/09 07:16:27;;;;;;;24.45;11.60;;;;;;;;;;5033950;28;20048;-76
2023/03/09 07:18:55;;;;;;;26.67;11.25;;;;;;;;;;5036831;28;20083;-75
2023/03/09 07:21:21;;;;;;;25.73;10.82;;;;;;;;;;5050277;28;20068;-76
2023/03/09 07:23:47;;;;;;;24.13;11.15;;;;;;;;;;5052229;28;20095;-75
2023/03/09 07:26:13;;;;;;;24.23;10.95;;;;;;;;;;5050453;28;20479;-76
2023/03/09 07:28:39;;;;;;;23.00;11.55;;;;;;;;;;5050479;28;20095;-76
2023/03/09 07:31:09;;;;;;;23.90;11.35;;;;;;;;;;5065717;28;20521;-76
2023/03/09 07:33:35;;;;;;;21.85;8.82;;;;;;;;;;5050401;28;20049;-76
2023/03/09 07:36:08;;;;;;;23.85;11.05;;;;;;;;;;5050470;28;20576;-76
2023/03/09 07:38:34;;;;;;;19.30;8.77;;;;;;;;;;5050888;28;20036;-76
2023/03/09 07:41:01;;;;;;;22.20;10.07;;;;;;;;;;5051705;28;20045;-76
2023/03/09 07:43:27;;;;;;;24.23;10.00;;;;;;;;;;5050259;28;20390;-76
2023/03/09 07:45:53;;;;;;;22.48;10.82;;;;;;;;;;5050395;28;20044;-76
2023/03/09 07:48:19;;;;;;;22.55;11.10;;;;;;;;;;5049852;28;20037;-75
2023/03/09 07:50:46;;;;;;;19.35;8.68;;;;;;;;;;5050799;28;20507;-75
2023/03/09 07:53:12;;;;;;;19.75;10.15;;;;;;;;;;5054902;28;20120;-76
2023/03/09 07:55:38;;;;;;;22.33;10.88;;;;;;;;;;5053773;28;20044;-76
2023/03/09 07:58:04;;;;;;;20.40;10.68;;;;;;;;;;5053759;28;20120;-76
2023/03/09 08:00:32;;;;;;;20.27;10.70;;;;;;;;;;5050666;28;20531;-75
2023/03/09 08:02:58;;;;;;;20.17;9.23;;;;;;;;;;5047609;28;20129;-76
2023/03/09 08:05:25;;;;;;;24.05;11.98;;;;;;;;;;5070045;28;20087;-76
2023/03/09 08:07:51;;;;;;;22.73;11.38;;;;;;;;;;5054895;28;20116;-75
2023/03/09 08:10:18;;;;;;;21.48;10.57;;;;;;;;;;5054738;28;20032;-75
2023/03/09 08:12:47;;;;;;;24.90;10.60;;;;;;;;;;5053431;28;20075;-75
2023/03/09 08:15:13;;;;;;;23.75;10.88;;;;;;;;;;5036672;28;20482;-75
2023/03/09 08:17:39;;;;;;;23.80;11.90;;;;;;;;;;5053438;28;20048;-75
2023/03/09 08:20:08;;;;;;;23.00;10.15;;;;;;;;;;5054748;28;20120;-76
2023/03/09 08:22:36;;;;;;;21.10;11.13;;;;;;;;;;5054625;28;20069;-76
2023/03/09 08:25:03;;;;;;;21.02;8.88;;;;;;;;;;5053547;28;20056;-76
2023/03/09 08:27:29;;;;;;;21.88;10.68;;;;;;;;;;5053122;28;20391;-76
2023/03/09 08:29:55;;;;;;;21.80;11.73;;;;;;;;;;5043362;28;20032;-76
2023/03/09 08:32:23;;;;;;;22.90;10.75;;;;;;;;;;5094151;28;20491;-76
2023/03/09 08:34:50;;;;;;;22.50;10.77;;;;;;;;;;5067152;28;20151;-76
2023/03/09 08:37:16;;;;;;;19.90;9.52;;;;;;;;;;5064533;28;20387;-77
2023/03/09 08:39:42;;;;;;;22.95;11.02;;;;;;;;;;5072958;28;20041;-76
2023/03/09 08:42:08;;;;;;;22.10;10.50;;;;;;;;;;5039960;28;20129;-75
2023/03/09 08:44:34;;;;;;;21.33;10.68;;;;;;;;;;5056044;28;20071;-76
2023/03/09 08:47:00;;;;;;;18.25;9.82;;;;;;;;;;5074130;28;20048;-75
2023/03/09 08:49:26;;;;;;;20.13;9.95;;;;;;;;;;5072805;28;20097;-77
2023/03/09 08:51:52;;;;;;;19.98;10.45;;;;;;;;;;5058937;28;20459;-75
2023/03/09 08:54:18;;;;;;;20.35;10.50;;;;;;;;;;5073869;28;20049;-76
2023/03/09 08:56:44;;;;;;;19.17;9.95;;;;;;;;;;5042383;28;20037;-76
2023/03/09 08:59:10;;;;;;;19.20;10.05;;;;;;;;;;5072582;28;20036;-77
2023/03/09 09:01:36;;;;;;;19.55;10.48;;;;;;;;;;5059297;28;20041;-76
2023/03/09 09:04:03;;;;;;;19.67;9.98;;;;;;;;;;5051495;28;20044;-77
2023/03/09 09:06:29;;;;;;;15.70;7.93;;;;;;;;;;5049919;28;20052;-76
2023/03/09 09:08:56;;;;;;;18.17;8.43;;;;;;;;;;5072603;28;20044;-75
2023/03/09 09:11:22;;;;;;;19.98;10.13;;;;;;;;;;5073557;28;20037;-76
2023/03/09 09:13:48;;;;;;;18.15;8.45;;;;;;;;;;5072339;28;20512;-75
2023/03/09 09:16:15;;;;;;;18.80;10.00;;;;;;;;;;5072354;28;20056;-77
2023/03/09 09:18:41;;;;;;;18.08;9.77;;;;;;;;;;5069983;28;20052;-76
2023/03/09 09:21:08;;;;;;;18.98;9.88;;;;;;;;;;5061055;28;20048;-77
2023/03/09 09:23:35;;;;;;;18.67;9.98;;;;;;;;;;5039435;28;20041;-75
2023/03/09 09:26:02;;;;;;;19.77;10.65;;;;;;;;;;5085780;28;20044;-76
2023/03/09 09:28:28;;;;;;;16.77;9.05;;;;;;;;;;5051825;28;20041;-75
2023/03/09 09:31:04;;;;;;;17.15;8.80;;;;;;;;;;5052400;28;20373;-76
2023/03/09 09:33:30;;;;;;;;;;;;;;;;;;5035452;28;20111;-75
2023/03/09 09:35:56;;;;;;;18.33;9.90;;;;;;;;;;5052061;28;19927;-76
2023/03/09 09:38:22;;;;;;;18.38;9.32;;;;;;;;;;5053175;28;20051;-76
2023/03/09 09:40:49;;;;;;;16.75;9.00;;;;;;;;;;5051866;28;20406;-75
2023/03/09 09:43:15;;;;;;;15.18;8.50;;;;;;;;;;5085531;28;20523;-76
2023/03/09 09:45:43;;;;;;;16.80;9.25;;;;;;;;;;5051584;28;20040;-76
2023/03/09 09:48:15;;;;;;;16.38;8.98;;;;;;;;;;5052278;28;20526;-77
2023/03/09 09:50:50;;;;;;;16.85;8.65;;;;;;;;;;5051654;28;20052;-76
2023/03/09 09:53:19;;;;;;;17.02;8.82;;;;;;;;;;5052041;28;20090;-77
2023/03/09 09:55:45;;;;;;;15.68;8.30;;;;;;;;;;5052933;28;20124;-76
2023/03/09 09:58:30;;;;;;;16.15;8.75;;;;;;;;;;5052033;28;20396;-76
2023/03/09 10:00:58;;;;;;;15.50;8.93;;;;;;;;;;5035150;28;20530;-77
2023/03/09 10:03:27;;;;;;;16.25;8.55;;;;;;;;;;5051496;28;20040;-76
2023/03/09 10:05:59;;;;;;;14.23;8.52;;;;;;;;;;5052641;28;20037;-75
2023/03/09 10:08:32;;;;;;;16.55;8.85;;;;;;;;;;5051071;28;20092;-75
2023/03/09 10:11:03;;;;;;;16.80;9.18;;;;;;;;;;5051583;28;20426;-75
2023/03/09 10:13:32;;;;;;;15.00;8.52;;;;;;;;;;5052183;28;20528;-75
2023/03/09 10:16:01;;;;;;;16.05;8.70;;;;;;;;;;5034613;28;20041;-75
2023/03/09 10:18:38;;;;;;;15.75;8.98;;;;;;;;;;5051318;28;20033;-76
2023/03/09 10:21:05;;;;;;;15.27;8.30;;;;;;;;;;5053600;28;20149;-75
2023/03/09 10:23:33;;;;;;;12.73;6.22;;;;;;;;;;5052248;28;20041;-75
2023/03/09 10:26:02;;;;;;;14.75;7.28;;;;;;;;;;5051743;28;20041;-77
2023/03/09 10:28:34;;;;;;;15.65;8.57;;;;;;;;;;5034706;28;20048;-76
2023/03/09 10:31:09;;;;;;;16.05;8.38;;;;;;;;;;5052373;28;20048;-76
2023/03/09 10:33:42;;;;;;;13.52;7.95;;;;;;;;;;5051695;28;20526;-74
2023/03/09 10:36:12;;;;;;;16.13;8.57;;;;;;;;;;5052564;28;20052;-75
2023/03/09 10:38:39;;;;;;;17.23;8.68;;;;;;;;;;5051075;28;20402;-77
2023/03/09 10:41:10;;;;;;;15.00;8.95;;;;;;;;;;5051400;28;20519;-77
2023/03/09 10:43:36;;;;;;;15.25;8.65;;;;;;;;;;5027081;28;20049;-76
2023/03/09 10:46:12;;;;;;;14.05;7.28;;;;;;;;;;5078512;28;20044;-75
2023/03/09 10:48:38;;;;;;;15.02;8.40;;;;;;;;;;5071157;28;20041;-77
2023/03/09 10:51:05;;;;;;;16.45;8.57;;;;;;;;;;5052284;28;20037;-77
2023/03/09 10:53:32;;;;;;;14.80;7.93;;;;;;;;;;5051820;28;20041;-77
2023/03/09 10:56:03;;;;;;;11.27;5.90;;;;;;;;;;5052439;28;20033;-77
2023/03/09 10:58:29;;;;;;;16.02;9.00;;;;;;;;;;5050945;28;20071;-76
2023/03/09 11:00:57;;;;;;;16.20;9.10;;;;;;;;;;5067831;28;20045;-76
2023/03/09 11:03:31;;;;;;;16.13;9.35;;;;;;;;;;5052166;28;20093;-75
2023/03/09 11:06:16;;;;;;;12.63;7.22;;;;;;;;;;5052219;28;20162;-75
2023/03/09 11:08:42;;;;;;;15.38;7.88;;;;;;;;;;5067376;28;20045;-75
2023/03/09 11:11:17;;;;;;;14.93;7.78;;;;;;;;;;5034112;28;20041;-77
2023/03/09 11:13:46;;;;;;;16.73;9.48;;;;;;;;;;5050480;28;20045;-77
2023/03/09 11:16:15;;;;;;;20.67;9.02;;;;;;;;;;5047049;28;20048;-77
2023/03/09 11:18:41;;;;;;;14.13;7.63;;;;;;;;;;5041791;28;20120;-75
2023/03/09 11:21:07;;;;;;;16.25;8.77;;;;;;;;;;5051966;28;20404;-75
2023/03/09 11:23:45;;;;;;;15.45;9.07;;;;;;;;;;5050515;28;20045;-76
2023/03/09 11:26:32;;;;;;;14.07;7.07;;;;;;;;;;5051450;28;20041;-75
2023/03/09 11:29:17;;;;;;;15.77;8.73;;;;;;;;;;5054015;28;20045;-77
2023/03/09 11:31:43;;;;;;;14.52;7.85;;;;;;;;;;5070822;28;20161;-77
2023/03/09 11:34:28;;;;;;;15.27;7.65;;;;;;;;;;5054113;28;20057;-77
2023/03/09 11:37:02;;;;;;;16.13;8.93;;;;;;;;;;5037702;28;20399;-75
2023/03/09 11:39:32;;;;;;;15.95;7.85;;;;;;;;;;5054147;28;20052;-75
2023/03/09 11:41:59;;;;;;;16.65;9.20;;;;;;;;;;5055273;28;20045;-76
2023/03/09 11:44:25;;;;;;;15.45;8.93;;;;;;;;;;5054367;28;20048;-75
2023/03/09 11:46:52;;;;;;;16.05;8.90;;;;;;;;;;5054078;28;20036;-75
2023/03/09 11:49:19;;;;;;;15.63;7.28;;;;;;;;;;5037310;28;20045;-75
2023/03/09 11:51:52;;;;;;;16.48;9.25;;;;;;;;;;5063442;28;20120;-75
2023/03/09 11:54:26;;;;;;;17.95;8.70;;;;;;;;;;5048323;28;20043;-77
2023/03/09 11:56:53;;;;;;;18.08;10.02;;;;;;;;;;5055309;28;20048;-77
2023/03/09 11:59:23;;;;;;;17.70;9.60;;;;;;;;;;5055311;28;20394;-77
2023/03/09 12:02:04;;;;;;;16.50;8.88;;;;;;;;;;5053802;28;20048;-77
2023/03/09 12:04:30;;;;;;;17.15;8.50;;;;;;;;;;5054832;28;20041;-77
2023/03/09 12:07:15;;;;;;;18.63;9.93;;;;;;;;;;5054835;28;20514;-77
2023/03/09 12:10:03;;;;;;;16.83;8.32;;;;;;;;;;5053263;28;20090;-77
2023/03/09 12:12:39;;;;;;;15.63;8.40;;;;;;;;;;5054017;28;20056;-77
2023/03/09 12:15:14;;;;;;;17.25;9.32;;;;;;;;;;5053309;28;20064;-77
2023/03/09 12:17:49;;;;;;;16.23;8.85;;;;;;;;;;5053541;28;20529;-77
2023/03/09 12:20:20;;;;;;;16.88;8.65;;;;;;;;;;5054552;28;20037;-76
2023/03/09 12:22:46;;;;;;;16.77;9.18;;;;;;;;;;5053089;28;20041;-77
2023/03/09 12:25:18;;;;;;;16.13;8.68;;;;;;;;;;5070395;28;20510;-77
2023/03/09 12:27:49;;;;;;;15.63;7.43;;;;;;;;;;5039636;28;20055;-75
2023/03/09 12:30:22;;;;;;;17.33;9.60;;;;;;;;;;5073356;28;20072;-75
2023/03/09 12:32:49;;;;;;;18.42;10.15;;;;;;;;;;5058627;28;20048;-75
2023/03/09 12:35:18;;;;;;;17.98;9.73;;;;;;;;;;5064663;28;20037;-75
2023/03/09 12:37:47;;;;;;;16.27;8.35;;;;;;;;;;5053290;28;20543;-75
2023/03/09 12:40:17;;;;;;;17.38;9.70;;;;;;;;;;5036402;28;20037;-75
2023/03/09 12:42:50;;;;;;;16.17;9.52;;;;;;;;;;5052969;28;20124;-75
2023/03/09 12:45:22;;;;;;;16.50;9.13;;;;;;;;;;5054205;28;20094;-75
2023/03/09 12:47:55;;;;;;;17.60;9.20;;;;;;;;;;5053257;28;20487;-77
2023/03/09 12:50:21;;;;;;;15.48;8.25;;;;;;;;;;5053101;28;20033;-77
2023/03/09 12:53:06;;;;;;;18.20;9.35;;;;;;;;;;5052757;28;20041;-77
2023/03/09 12:55:35;;;;;;;16.58;9.45;;;;;;;;;;5072712;28;20036;-77
2023/03/09 12:58:22;;;;;;;17.25;8.65;;;;;;;;;;5052528;28;20037;-75
2023/03/09 13:01:10;;;;;;;18.02;7.82;;;;;;;;;;5046147;28;20491;-75
2023/03/09 13:03:45;;;;;;;18.50;10.07;;;;;;;;;;5049154;28;20053;-75
2023/03/09 13:06:30;;;;;;;17.52;9.95;;;;;;;;;;5052696;28;20040;-76
2023/03/09 13:08:58;;;;;;;16.73;9.10;;;;;;;;;;5053541;28;20037;-75
2023/03/09 13:11:24;;;;;;;20.08;10.60;;;;;;;;;;5052387;28;20053;-75
2023/03/09 13:13:51;;;;;;;20.13;10.73;;;;;;;;;;5052134;28;20145;-75
2023/03/09 13:16:32;;;;;;;19.08;10.23;;;;;;;;;;5052612;28;20503;-75
2023/03/09 13:19:17;;;;;;;18.73;10.15;;;;;;;;;;5052119;28;20052;-74
2023/03/09 13:21:46;;;;;;;17.63;9.65;;;;;;;;;;5052122;28;20044;-77
2023/03/09 13:24:18;;;;;;;18.38;10.40;;;;;;;;;;5052535;28;20491;-77
2023/03/09 13:26:49;;;;;;;17.88;9.00;;;;;;;;;;5052526;28;20403;-77
2023/03/09 13:29:16;;;;;;;19.85;9.77;;;;;;;;;;5054785;28;20037;-75
2023/03/09 13:31:45;;;;;;;18.38;9.80;;;;;;;;;;5073539;28;20032;-75
2023/03/09 13:34:18;;;;;;;17.63;8.65;;;;;;;;;;5071558;28;20052;-74
2023/03/09 13:36:45;;;;;;;18.98;9.60;;;;;;;;;;5047354;28;20167;-75
2023/03/09 13:39:18;;;;;;;21.40;9.88;;;;;;;;;;5072011;28;20044;-75
2023/03/09 13:41:45;;;;;;;21.60;10.27;;;;;;;;;;5065531;28;20037;-75
2023/03/09 13:44:15;;;;;;;21.15;10.82;;;;;;;;;;5064104;28;20505;-77
2023/03/09 13:46:44;;;;;;;19.58;10.50;;;;;;;;;;5057585;28;20036;-74
2023/03/09 13:49:33;;;;;;;21.83;9.93;;;;;;;;;;5070847;28;20051;-75
2023/03/09 13:52:04;;;;;;;20.10;9.95;;;;;;;;;;5066162;28;20392;-77
2023/03/09 13:54:31;;;;;;;21.27;9.15;;;;;;;;;;5073352;28;20040;-74
2023/03/09 13:56:58;;;;;;;21.08;10.57;;;;;;;;;;5072474;28;20036;-75
2023/03/09 13:59:24;;;;;;;20.90;10.45;;;;;;;;;;5055268;28;20483;-75
2023/03/09 14:01:51;;;;;;;20.92;10.90;;;;;;;;;;5057197;28;20040;-74
2023/03/09 14:04:17;;;;;;;21.63;9.88;;;;;;;;;;5067686;28;20040;-75
2023/03/09 14:06:43;;;;;;;22.70;10.55;;;;;;;;;;5037535;28;20045;-76
2023/03/09 14:09:12;;;;;;;22.27;10.20;;;;;;;;;;5034737;28;20051;-77
2023/03/09 14:11:40;;;;;;;23.52;12.73;;;;;;;;;;5052466;28;20041;-77
2023/03/09 14:14:08;;;;;;;25.13;11.82;;;;;;;;;;5051040;28;20063;-77
2023/03/09 14:16:35;;;;;;;21.05;10.10;;;;;;;;;;5051227;28;20051;-77
2023/03/09 14:19:03;;;;;;;25.13;13.35;;;;;;;;;;5052637;28;20069;-77
2023/03/09 14:21:35;;;;;;;26.75;13.02;;;;;;;;;;5051127;28;20087;-75
2023/03/09 14:24:09;;;;;;;22.50;11.95;;;;;;;;;;5052261;28;20167;-75
2023/03/09 14:26:36;;;;;;;21.92;10.45;;;;;;;;;;5028634;28;20521;-75
2023/03/09 14:29:05;;;;;;;20.00;9.90;;;;;;;;;;5045920;28;20515;-75
2023/03/09 14:31:31;;;;;;;22.85;11.57;;;;;;;;;;5054268;28;20052;-75